Messwerte Port Harcourt

Temperatur

Temperatur
°C
1560981600 23.00 23.00
1560985200 0.00 0.00
1560988800 1.00 1.00
1560992400 2.00 2.00
1560996000 3.00 3.00
1560999600 4.00 4.00 24
1561003200 5.00 5.00
1561006800 6.00 6.00
1561010400 7.00 7.00 25
1561014000 8.00 8.00 25
1561017600 9.00 9.00 25
1561021200 10.00 10.00
1561024800 11.00 11.00
1561028400 12.00 12.00 25
1561032000 13.00 13.00 25
1561035600 14.00 14.00 24
1561039200 15.00 15.00 23
1561042800 16.00 16.00 24
1561046400 17.00 17.00 25
1561050000 18.00 18.00 25
1561053600 19.00 19.00 25
1561057200 20.00 20.00 24
1561060800 21.00 21.00 24
1561064400 22.00 22.00 24

Aktuellste Messwerte

Wettercharakter
Wetter: wechselnd bewölkt
Temperatur
24 °C
Feuchtigkeit
100 %
Wind
0 km/h, -
Luftdruck
1015 hPa
Messzeit: 20. Juni 2019, 23.00Datenquelle: METAR

Weitere Messstationen in der Nähe

Messstation Temperatur Entfernung
Malabo 25 °C 246 km
Douala 26 °C 328 km
Lagos 24 °C 436 km
Abuja - 445 km

Wind

Windrichtung Böen Mittelwind
° km/h km/h
1560981600 23.00 22.00 - 23.00
1560985200 0.00 23.00 - 0.00
1560988800 1.00 0.00 - 1.00
1560992400 2.00 1.00 - 2.00
1560996000 3.00 2.00 - 3.00
1560999600 4.00 3.00 - 4.00 0
1561003200 5.00 4.00 - 5.00
1561006800 6.00 5.00 - 6.00
1561010400 7.00 6.00 - 7.00 0
1561014000 8.00 7.00 - 8.00 0
1561017600 9.00 8.00 - 9.00 0
1561021200 10.00 9.00 - 10.00
1561024800 11.00 10.00 - 11.00
1561028400 12.00 11.00 - 12.00 240° 10
1561032000 13.00 12.00 - 13.00 160° 20
1561035600 14.00 13.00 - 14.00 230° 20
1561039200 15.00 14.00 - 15.00 5
1561042800 16.00 15.00 - 16.00 50° 5
1561046400 17.00 16.00 - 17.00 5
1561050000 18.00 17.00 - 18.00 200° 5
1561053600 19.00 18.00 - 19.00 200° 5
1561057200 20.00 19.00 - 20.00 210° 5
1561060800 21.00 20.00 - 21.00 0
1561064400 22.00 21.00 - 22.00 0

Ihre Wetterstation

Fehlt Ihre Wetterstation auf unserem Portal?

Schreiben Sie an network@meteonews.ch